MSC Alexa — 3FPP6 — position and weather

sailwx.info

Track history (hours):
 
Tides and Currents Weather Stations Pressure Air Temp Water Temp Dewpoint Dewpoint Depression Visibility Wind Speed Wind Dir Waves Ship Positions

MSC Alexa

Last reported at 2015-May-22 01:18 UTC. Time now 2015-May-28 06:04 UTC.
Position S 24°42' W 046°42'.

Length 243 m; draft 10 m.

Type: Ship (hazmat cat D). MMSI: 356904000.

Date/timePositionNaut miles runAvg speedWind from/ knotsBaromVisibWave heightAir tempDewpointWater temp
2015-May-22 01:18S 24°42' W 046°42'1317.6
2015-May-22 00:33S 24°31' W 046°34'1717.3
2015-May-21 23:33S 24°15' W 046°27'1312.6
2015-May-21 22:33S 24°03' W 046°22'2 1.6
2015-May-21 21:33S 24°04' W 046°23'8 7.6
2015-May-21 20:33S 23°59' W 046°17'5 4.8
2015-May-21 19:31S 23°55' W 046°21'0 0.0
2015-May-21 18:25S 23°55' W 046°21'0 0.0
2015-May-21 17:27S 23°55' W 046°21'0 0.0
2015-May-21 16:33S 23°55' W 046°21'0 0.0
2015-May-21 15:27S 23°55' W 046°21'0 0.0
2015-May-21 14:32S 23°55' W 046°21'0 0.0
2015-May-21 13:32S 23°55' W 046°21'0 0.0
2015-May-21 12:25S 23°55' W 046°21'0 0.0
2015-May-21 11:33S 23°55' W 046°21'0 0.0
2015-May-21 10:33S 23°55' W 046°21'0 0.0
2015-May-21 09:33S 23°55' W 046°21'0 0.0
2015-May-21 08:33S 23°55' W 046°21'0 0.0
2015-May-21 07:33S 23°55' W 046°21'0 0.0
2015-May-21 06:34S 23°55' W 046°21'0 0.0
2015-May-21 05:33S 23°55' W 046°21'0 0.0
2015-May-21 04:34S 23°55' W 046°21'0 0.0
2015-May-21 03:34S 23°55' W 046°21'0 0.0
2015-May-21 02:33S 23°55' W 046°21'0 0.0
2015-May-21 01:33S 23°55' W 046°21'0 0.0
2015-May-21 00:33S 23°55' W 046°21'0 0.0
2015-May-20 23:34S 23°55' W 046°21'3 3.4
2015-May-20 22:34S 23°57' W 046°18'8 8.5
2015-May-20 21:33S 24°05' W 046°22'1111.1
2015-May-20 20:33S 24°16' W 046°21'1 0.7
2015-May-20 19:33S 24°17' W 046°21'4 3.6
2015-May-20 18:33S 24°21' W 046°21'1110.5
2015-May-20 17:33S 24°23' W 046°10'1211.8
2015-May-20 16:33S 24°21' W 045°57'1211.6
2015-May-20 15:33S 24°18' W 045°45'  
Track history (hours):
 
Tides and Currents Weather Stations Pressure Air Temp Water Temp Dewpoint Dewpoint Depression Visibility Wind Speed Wind Dir Waves Ship Positions

MSC Alexa

Last reported at 2015-May-22 01:18 UTC. Time now 2015-May-28 06:04 UTC.
Position S 24°42' W 046°42'.

Length 243 m; draft 10 m.

Type: Ship (hazmat cat D). MMSI: 356904000.

Date/timePositionNaut miles runAvg speedWind from/ knotsBaromVisibWave heightAir tempDewpointWater temp
2015-May-22 01:18S 24°42' W 046°42'1317.6
2015-May-22 00:33S 24°31' W 046°34'1717.3
2015-May-21 23:33S 24°15' W 046°27'1312.6
2015-May-21 22:33S 24°03' W 046°22'2 1.6
2015-May-21 21:33S 24°04' W 046°23'8 7.6
2015-May-21 20:33S 23°59' W 046°17'5 4.8
2015-May-21 19:31S 23°55' W 046°21'0 0.0
2015-May-21 18:25S 23°55' W 046°21'0 0.0
2015-May-21 17:27S 23°55' W 046°21'0 0.0
2015-May-21 16:33S 23°55' W 046°21'0 0.0
2015-May-21 15:27S 23°55' W 046°21'0 0.0
2015-May-21 14:32S 23°55' W 046°21'0 0.0
2015-May-21 13:32S 23°55' W 046°21'0 0.0
2015-May-21 12:25S 23°55' W 046°21'0 0.0
2015-May-21 11:33S 23°55' W 046°21'0 0.0
2015-May-21 10:33S 23°55' W 046°21'0 0.0
2015-May-21 09:33S 23°55' W 046°21'0 0.0
2015-May-21 08:33S 23°55' W 046°21'0 0.0
2015-May-21 07:33S 23°55' W 046°21'0 0.0
2015-May-21 06:34S 23°55' W 046°21'0 0.0
2015-May-21 05:33S 23°55' W 046°21'0 0.0
2015-May-21 04:34S 23°55' W 046°21'0 0.0
2015-May-21 03:34S 23°55' W 046°21'0 0.0
2015-May-21 02:33S 23°55' W 046°21'0 0.0
2015-May-21 01:33S 23°55' W 046°21'0 0.0
2015-May-21 00:33S 23°55' W 046°21'0 0.0
2015-May-20 23:34S 23°55' W 046°21'3 3.4
2015-May-20 22:34S 23°57' W 046°18'8 8.5
2015-May-20 21:33S 24°05' W 046°22'1111.1
2015-May-20 20:33S 24°16' W 046°21'1 0.7
2015-May-20 19:33S 24°17' W 046°21'4 3.6
2015-May-20 18:33S 24°21' W 046°21'1110.5
2015-May-20 17:33S 24°23' W 046°10'1211.8
2015-May-20 16:33S 24°21' W 045°57'1211.6
2015-May-20 15:33S 24°18' W 045°45'  

Dump ship's entire track history